createdAt,value
2018-12-03T00:01:24.424Z,99.90
2018-12-03T00:03:54.312Z,99.90
2018-12-03T00:06:23.742Z,99.90
2018-12-03T00:08:54.136Z,99.90
2018-12-03T00:11:23.532Z,99.90
2018-12-03T00:13:53.072Z,99.90
2018-12-03T00:16:22.482Z,99.90
2018-12-03T00:18:52.281Z,99.90
2018-12-03T00:21:21.702Z,99.90
2018-12-03T00:23:51.156Z,99.90
2018-12-03T00:26:20.588Z,99.90
2018-12-03T00:28:50.019Z,99.90
2018-12-03T00:31:19.512Z,99.90
2018-12-03T00:33:49.001Z,99.90
2018-12-03T00:36:18.434Z,99.90
2018-12-03T00:38:47.919Z,99.90
2018-12-03T00:41:17.474Z,99.90
2018-12-03T00:43:47.175Z,99.90
2018-12-03T00:46:16.852Z,99.90
2018-12-03T00:48:46.268Z,99.90
2018-12-03T00:51:15.731Z,99.90
2018-12-03T00:53:45.159Z,99.90
2018-12-03T00:56:14.700Z,99.90
2018-12-03T00:58:44.178Z,99.90
2018-12-03T01:01:13.647Z,99.90
2018-12-03T01:03:43.176Z,99.90
2018-12-03T01:06:12.624Z,99.90
2018-12-03T01:08:42.125Z,99.90
2018-12-03T01:11:11.572Z,99.90
2018-12-03T01:13:41.064Z,99.90
2018-12-03T01:16:10.556Z,99.90
2018-12-03T01:18:40.026Z,99.90
2018-12-03T01:21:09.479Z,99.90
2018-12-03T01:23:38.880Z,99.90
2018-12-03T01:26:08.343Z,99.90
2018-12-03T01:28:37.840Z,99.90
2018-12-03T01:31:07.312Z,99.90
2018-12-03T01:33:37.425Z,99.90
2018-12-03T01:36:06.905Z,99.90
2018-12-03T01:38:36.361Z,99.90
2018-12-03T01:41:07.192Z,99.90
2018-12-03T01:43:36.618Z,99.90
2018-12-03T01:46:06.672Z,99.90
2018-12-03T01:48:36.082Z,99.90
2018-12-03T01:51:06.330Z,99.90
2018-12-03T01:53:35.799Z,99.90
2018-12-03T01:56:05.284Z,99.90
2018-12-03T01:58:34.712Z,99.90
2018-12-03T02:01:04.200Z,99.90
2018-12-03T02:03:33.674Z,99.90
2018-12-03T02:06:03.210Z,99.90
2018-12-03T02:08:32.636Z,99.90
2018-12-03T02:11:02.100Z,99.90
2018-12-03T02:13:31.557Z,99.90
2018-12-03T02:16:01.048Z,99.90
2018-12-03T02:18:31.425Z,99.90
2018-12-03T02:21:00.836Z,99.90
2018-12-03T02:23:30.288Z,99.90
2018-12-03T02:25:59.683Z,99.90
2018-12-03T02:28:29.115Z,99.90
2018-12-03T02:30:58.526Z,99.90
2018-12-03T02:33:27.979Z,99.90
2018-12-03T02:35:58.421Z,99.90
2018-12-03T02:38:27.860Z,99.90
2018-12-03T02:40:57.273Z,99.90
2018-12-03T02:43:26.711Z,99.90
2018-12-03T02:45:56.111Z,99.90
2018-12-03T02:48:25.530Z,99.90
2018-12-03T02:50:55.031Z,99.90
2018-12-03T02:53:24.475Z,99.90
2018-12-03T02:55:53.908Z,99.90
2018-12-03T02:58:23.319Z,99.90
2018-12-03T03:00:52.806Z,99.90
2018-12-03T03:03:22.313Z,99.90
2018-12-03T03:05:51.747Z,99.90
2018-12-03T03:08:21.306Z,99.90
2018-12-03T03:10:50.754Z,99.90
2018-12-03T03:13:20.197Z,99.90
2018-12-03T03:15:49.654Z,99.90
2018-12-03T03:18:19.084Z,99.90
2018-12-03T03:20:48.535Z,99.90
2018-12-03T03:23:18.387Z,99.90
2018-12-03T03:25:47.770Z,99.90
2018-12-03T03:28:17.225Z,99.90
2018-12-03T03:30:46.658Z,99.90
2018-12-03T03:33:16.088Z,99.90
2018-12-03T03:35:45.515Z,99.90
2018-12-03T03:38:15.021Z,99.90
2018-12-03T03:40:44.496Z,99.90
2018-12-03T03:43:13.970Z,99.90
2018-12-03T03:45:43.455Z,99.90
2018-12-03T03:48:12.883Z,99.90
2018-12-03T03:50:42.300Z,99.90
2018-12-03T03:53:11.735Z,99.90
2018-12-03T03:55:41.193Z,99.90
2018-12-03T03:58:10.654Z,99.90
2018-12-03T04:00:40.103Z,99.90
2018-12-03T04:03:09.559Z,99.90
2018-12-03T04:05:39.004Z,99.90
2018-12-03T04:08:08.442Z,99.90
2018-12-03T04:10:38.012Z,99.90
2018-12-03T04:13:07.450Z,99.90
2018-12-03T04:15:36.876Z,99.90
2018-12-03T04:18:06.731Z,99.90
2018-12-03T04:20:36.149Z,99.90
2018-12-03T04:23:05.693Z,99.90
2018-12-03T04:25:35.114Z,99.90
2018-12-03T04:28:04.720Z,99.90
2018-12-03T04:30:34.112Z,99.90
2018-12-03T04:33:03.607Z,99.90
2018-12-03T04:35:33.009Z,99.90
2018-12-03T04:38:02.513Z,99.90
2018-12-03T04:40:32.000Z,99.90
2018-12-03T04:43:01.418Z,99.90
2018-12-03T04:45:30.887Z,99.90
2018-12-03T04:48:00.356Z,99.90
2018-12-03T04:50:29.912Z,99.90
2018-12-03T04:52:59.380Z,99.90
2018-12-03T04:55:28.840Z,99.90
2018-12-03T04:57:58.317Z,99.90
2018-12-03T05:00:27.753Z,99.90
2018-12-03T05:02:57.177Z,99.90
2018-12-03T05:05:26.654Z,99.90
2018-12-03T05:07:56.076Z,99.90
2018-12-03T05:10:25.458Z,99.90
2018-12-03T05:12:55.948Z,99.90
2018-12-03T05:15:25.373Z,99.90
2018-12-03T05:17:54.804Z,99.90
2018-12-03T05:20:25.425Z,99.90
2018-12-03T05:22:54.909Z,99.90
2018-12-03T05:25:24.771Z,99.90
2018-12-03T05:27:54.218Z,99.90
2018-12-03T05:30:23.644Z,99.90
2018-12-03T05:32:53.169Z,99.90
2018-12-03T05:35:25.199Z,99.90
2018-12-03T05:37:54.704Z,99.90
2018-12-03T05:40:26.501Z,99.90
2018-12-03T05:42:56.034Z,99.90
2018-12-03T05:45:25.556Z,99.90
2018-12-03T05:47:55.009Z,99.90
2018-12-03T05:50:24.423Z,99.90
2018-12-03T05:52:53.891Z,99.90
2018-12-03T05:55:23.321Z,99.90
2018-12-03T05:57:52.721Z,99.90
2018-12-03T06:00:23.529Z,99.90
2018-12-03T06:02:53.011Z,99.90
2018-12-03T06:05:22.453Z,99.90
2018-12-03T06:07:51.873Z,99.90
2018-12-03T06:10:22.352Z,99.90
2018-12-03T06:12:51.819Z,99.90
2018-12-03T06:15:21.900Z,99.90
2018-12-03T06:17:52.792Z,99.90
2018-12-03T06:20:22.951Z,99.90
2018-12-03T06:22:54.299Z,99.90
2018-12-03T06:25:25.306Z,99.90
2018-12-03T06:27:54.739Z,99.90
2018-12-03T06:30:25.177Z,99.90
2018-12-03T06:32:54.588Z,99.90
2018-12-03T06:35:24.025Z,99.90
2018-12-03T06:37:53.483Z,99.90
2018-12-03T06:40:30.757Z,99.90
2018-12-03T06:43:00.669Z,99.90
2018-12-03T06:45:30.133Z,99.90
2018-12-03T06:48:10.549Z,99.90
2018-12-03T06:50:40.165Z,99.90
2018-12-03T06:53:09.587Z,99.90
2018-12-03T06:55:39.061Z,99.90
2018-12-03T06:58:08.467Z,99.90
2018-12-03T07:00:37.931Z,99.90
2018-12-03T07:03:07.338Z,99.90
2018-12-03T07:05:36.782Z,99.90
2018-12-03T07:08:07.876Z,99.90
2018-12-03T07:10:37.339Z,99.90
2018-12-03T07:13:09.808Z,99.90
2018-12-03T07:15:41.136Z,99.90
2018-12-03T07:18:11.301Z,99.90
2018-12-03T07:20:40.731Z,99.90
2018-12-03T07:23:10.788Z,99.90
2018-12-03T07:25:40.224Z,99.90
2018-12-03T07:28:09.696Z,99.90
2018-12-03T07:30:39.144Z,99.90
2018-12-03T07:33:08.524Z,99.90
2018-12-03T07:35:38.008Z,99.90
2018-12-03T07:38:07.429Z,99.90
2018-12-03T07:40:36.860Z,99.90
2018-12-03T07:43:06.592Z,99.90
2018-12-03T07:45:36.130Z,99.90
2018-12-03T07:48:05.620Z,99.90
2018-12-03T07:50:35.074Z,99.90
2018-12-03T07:53:04.513Z,99.90
2018-12-03T07:55:34.008Z,99.90
2018-12-03T07:58:05.686Z,99.90
2018-12-03T08:01:07.236Z,99.90
2018-12-03T08:03:36.600Z,99.90
2018-12-03T08:06:06.223Z,99.90
2018-12-03T08:08:35.632Z,99.90
2018-12-03T08:11:06.675Z,99.90
2018-12-03T08:13:36.184Z,99.90
2018-12-03T08:16:06.064Z,99.90
2018-12-03T08:18:35.522Z,99.90
2018-12-03T08:21:08.017Z,99.90
2018-12-03T08:23:56.154Z,99.90
2018-12-03T08:26:25.649Z,99.90
2018-12-03T08:28:55.072Z,99.90
2018-12-03T08:31:24.485Z,99.90
2018-12-03T08:33:53.904Z,99.90
2018-12-03T08:36:23.400Z,99.90
2018-12-03T08:38:52.784Z,99.90
2018-12-03T08:41:22.282Z,99.90
2018-12-03T08:43:51.768Z,99.90
2018-12-03T08:46:21.154Z,99.90
2018-12-03T08:48:50.570Z,99.90
2018-12-03T08:51:20.469Z,99.90
2018-12-03T08:53:50.176Z,99.90
2018-12-03T08:56:19.603Z,99.90
2018-12-03T08:58:49.038Z,99.90
2018-12-03T09:01:20.450Z,99.90
2018-12-03T09:04:08.764Z,99.90
2018-12-03T09:06:38.172Z,99.90
2018-12-03T09:09:13.075Z,99.90
2018-12-03T09:11:47.494Z,99.90
2018-12-03T09:14:18.000Z,99.90
2018-12-03T09:16:47.589Z,99.90
2018-12-03T09:19:17.100Z,99.90
2018-12-03T09:21:46.551Z,99.90
2018-12-03T09:24:15.932Z,99.90
2018-12-03T09:26:45.369Z,99.90
2018-12-03T09:29:14.830Z,99.90
2018-12-03T09:31:44.306Z,99.90
2018-12-03T09:34:13.762Z,99.90
2018-12-03T09:36:43.172Z,99.90
2018-12-03T09:39:17.564Z,99.90
2018-12-03T09:41:48.433Z,99.90
2018-12-03T09:44:17.924Z,99.90
2018-12-03T09:46:47.376Z,99.90
2018-12-03T09:49:16.750Z,99.90
2018-12-03T09:51:46.192Z,99.90
2018-12-03T09:54:15.648Z,99.90
2018-12-03T09:56:49.528Z,99.90
2018-12-03T09:59:20.561Z,99.90
2018-12-03T10:01:51.671Z,99.90
2018-12-03T10:04:39.338Z,99.90
2018-12-03T10:07:08.909Z,99.90
2018-12-03T10:09:39.948Z,99.90
2018-12-03T10:12:10.265Z,99.90
2018-12-03T10:14:39.744Z,99.90
2018-12-03T10:17:09.304Z,99.90
2018-12-03T10:19:38.788Z,99.70
2018-12-03T10:22:08.801Z,99.60
2018-12-03T10:24:38.458Z,99.40
2018-12-03T10:27:13.232Z,99.30
2018-12-03T10:29:43.056Z,99.30
2018-12-03T10:32:16.562Z,99.10
2018-12-03T10:34:46.039Z,99.10
2018-12-03T10:37:16.262Z,99.00
2018-12-03T10:39:45.648Z,98.90
2018-12-03T10:42:16.725Z,98.80
2018-12-03T10:44:47.652Z,98.80
2018-12-03T10:47:17.106Z,98.60
2018-12-03T10:49:46.632Z,98.40
2018-12-03T10:52:20.660Z,98.30
2018-12-03T10:54:50.084Z,98.20
2018-12-03T10:57:19.752Z,97.90
2018-12-03T10:59:51.061Z,97.80
2018-12-03T11:02:32.334Z,97.80
2018-12-03T11:05:06.977Z,97.70
2018-12-03T11:07:36.564Z,97.50
2018-12-03T11:10:07.672Z,97.70
2018-12-03T11:12:37.157Z,97.50
2018-12-03T11:15:14.896Z,97.60
2018-12-03T11:17:44.570Z,97.60
2018-12-03T11:20:14.199Z,97.60
2018-12-03T11:22:44.359Z,97.50
2018-12-03T11:25:15.776Z,97.50
2018-12-03T11:27:47.799Z,97.70
2018-12-03T11:30:17.502Z,97.40
2018-12-03T11:32:46.945Z,97.90
2018-12-03T11:35:22.481Z,97.70
2018-12-03T11:37:53.319Z,97.80
2018-12-03T11:40:33.722Z,98.00
2018-12-03T11:43:03.145Z,98.10
2018-12-03T11:45:32.644Z,98.20
2018-12-03T11:48:02.116Z,98.40
2018-12-03T11:50:31.585Z,98.50
2018-12-03T11:53:01.060Z,98.50
2018-12-03T11:55:30.536Z,98.50
2018-12-03T11:57:59.955Z,98.40
2018-12-03T12:00:29.369Z,98.50
2018-12-03T12:02:58.794Z,98.70
2018-12-03T12:05:28.226Z,98.30
2018-12-03T12:07:57.644Z,98.40
2018-12-03T12:10:27.084Z,98.30
2018-12-03T12:12:58.585Z,98.20
2018-12-03T12:15:27.999Z,98.20
2018-12-03T12:17:57.644Z,98.10
2018-12-03T12:20:27.083Z,98.00
2018-12-03T12:22:56.506Z,97.90
2018-12-03T12:25:25.908Z,97.80
2018-12-03T12:27:57.085Z,97.70
2018-12-03T12:30:26.505Z,97.60
2018-12-03T12:32:55.954Z,97.60
2018-12-03T12:35:25.530Z,97.60
2018-12-03T12:37:56.878Z,97.60
2018-12-03T12:40:26.395Z,97.40
2018-12-03T12:42:55.809Z,97.20
2018-12-03T12:45:28.391Z,97.20
2018-12-03T12:47:57.872Z,97.10
2018-12-03T12:50:27.300Z,97.10
2018-12-03T12:52:56.685Z,97.20
2018-12-03T12:55:26.056Z,97.20
2018-12-03T12:57:55.583Z,97.10
2018-12-03T13:00:24.966Z,97.40
2018-12-03T13:02:54.468Z,97.20
2018-12-03T13:05:28.677Z,97.10
2018-12-03T13:07:55.580Z,97.00
2018-12-03T13:10:25.017Z,96.90
2018-12-03T13:12:54.413Z,97.00
2018-12-03T13:15:23.840Z,97.00
2018-12-03T13:17:53.315Z,97.00
2018-12-03T13:20:23.901Z,97.00
2018-12-03T13:22:53.352Z,97.00
2018-12-03T13:25:22.844Z,96.90
2018-12-03T13:27:53.176Z,97.00
2018-12-03T13:30:22.625Z,96.90
2018-12-03T13:32:52.058Z,96.90
2018-12-03T13:35:21.503Z,97.00
2018-12-03T13:38:54.121Z,97.10
2018-12-03T13:41:24.499Z,97.50
2018-12-03T13:43:54.054Z,97.00
2018-12-03T13:46:23.576Z,97.00
2018-12-03T13:48:53.060Z,97.00
2018-12-03T13:51:22.570Z,97.10
2018-12-03T13:53:52.073Z,97.10
2018-12-03T13:56:21.557Z,97.10
2018-12-03T13:58:51.143Z,97.20
2018-12-03T14:01:20.764Z,97.20
2018-12-03T14:03:52.241Z,97.20
2018-12-03T14:07:31.297Z,97.20
2018-12-03T14:10:11.476Z,97.20
2018-12-03T14:12:49.028Z,97.20
2018-12-03T14:15:59.931Z,97.20
2018-12-03T14:18:33.655Z,97.30
2018-12-03T14:21:10.873Z,97.30
2018-12-03T14:23:40.997Z,97.30
2018-12-03T14:26:10.665Z,97.40
2018-12-03T14:28:40.075Z,97.40
2018-12-03T14:31:09.495Z,97.40
2018-12-03T14:33:38.915Z,97.90
2018-12-03T14:36:08.357Z,97.60
2018-12-03T14:38:37.815Z,97.70
2018-12-03T14:41:07.505Z,97.70
2018-12-03T14:43:36.977Z,97.70
2018-12-03T14:46:06.501Z,97.70
2018-12-03T14:48:35.977Z,97.70
2018-12-03T14:51:05.586Z,97.80
2018-12-03T14:53:35.086Z,97.80
2018-12-03T14:56:04.525Z,97.90
2018-12-03T14:58:33.959Z,97.90
2018-12-03T15:01:03.611Z,97.90
2018-12-03T15:03:33.018Z,98.00
2018-12-03T15:06:02.477Z,98.10
2018-12-03T15:08:31.929Z,98.10
2018-12-03T15:11:01.335Z,98.10
2018-12-03T15:13:30.761Z,98.10
2018-12-03T15:16:00.187Z,98.20
2018-12-03T15:18:29.673Z,98.10
2018-12-03T15:20:59.347Z,98.20
2018-12-03T15:23:29.835Z,98.20
2018-12-03T15:25:59.483Z,98.20
2018-12-03T15:28:28.911Z,98.20
2018-12-03T15:30:58.380Z,98.20
2018-12-03T15:33:27.807Z,98.20
2018-12-03T15:35:57.242Z,98.20
2018-12-03T15:38:26.752Z,98.20
2018-12-03T15:40:56.499Z,98.20
2018-12-03T15:43:26.171Z,98.20
2018-12-03T15:45:55.851Z,98.20
2018-12-03T15:48:25.448Z,98.30
2018-12-03T15:50:55.152Z,98.20
2018-12-03T15:53:24.800Z,98.30
2018-12-03T15:55:54.279Z,98.20
2018-12-03T15:58:23.851Z,98.30
2018-12-03T16:00:53.329Z,98.30
2018-12-03T16:03:22.767Z,98.30
2018-12-03T16:05:52.443Z,98.30
2018-12-03T16:08:22.092Z,98.30
2018-12-03T16:10:51.908Z,98.30
2018-12-03T16:13:21.393Z,98.20
2018-12-03T16:15:50.808Z,98.20
2018-12-03T16:18:20.267Z,98.20
2018-12-03T16:20:49.707Z,98.20
2018-12-03T16:23:19.135Z,98.20
2018-12-03T16:26:01.845Z,98.30
2018-12-03T16:28:31.376Z,98.30
2018-12-03T16:31:00.935Z,98.30
2018-12-03T16:33:30.404Z,98.30
2018-12-03T16:35:59.915Z,98.30
2018-12-03T16:38:29.367Z,98.30
2018-12-03T16:40:59.106Z,98.40
2018-12-03T16:43:28.492Z,98.40
2018-12-03T16:45:58.512Z,98.40
2018-12-03T16:48:27.914Z,98.50
2018-12-03T16:50:57.386Z,98.60
2018-12-03T16:53:26.869Z,98.60
2018-12-03T16:55:56.468Z,98.80
2018-12-03T16:58:26.877Z,99.10
2018-12-03T17:00:56.260Z,99.70
2018-12-03T17:03:25.731Z,99.90
2018-12-03T17:05:55.151Z,99.90
2018-12-03T17:08:24.564Z,99.90
2018-12-03T17:10:53.984Z,99.90
2018-12-03T17:13:23.348Z,99.90
2018-12-03T17:15:53.296Z,99.90
2018-12-03T17:18:24.840Z,99.90
2018-12-03T17:21:05.618Z,99.90
2018-12-03T17:23:39.366Z,99.90
2018-12-03T17:26:08.943Z,99.90
2018-12-03T17:28:38.332Z,99.90
2018-12-03T17:31:07.750Z,99.90
2018-12-03T17:33:37.178Z,99.90
2018-12-03T17:36:06.628Z,99.90
2018-12-03T17:38:36.035Z,99.90
2018-12-03T17:41:05.471Z,99.90
2018-12-03T17:43:34.883Z,99.90
2018-12-03T17:46:04.465Z,99.90
2018-12-03T17:48:33.902Z,99.90
2018-12-03T17:51:03.480Z,99.90
2018-12-03T17:53:33.896Z,99.90
2018-12-03T17:56:03.342Z,99.90
2018-12-03T17:58:34.815Z,99.90
2018-12-03T18:01:04.260Z,99.90
2018-12-03T18:03:33.689Z,99.90
2018-12-03T18:06:03.152Z,99.90
2018-12-03T18:08:32.616Z,99.90
2018-12-03T18:11:02.072Z,99.90
2018-12-03T18:13:31.683Z,99.90
2018-12-03T18:16:01.120Z,99.90
2018-12-03T18:18:30.651Z,99.90
2018-12-03T18:21:00.072Z,99.90
2018-12-03T18:23:29.485Z,99.90
2018-12-03T18:25:58.952Z,99.90
2018-12-03T18:28:28.501Z,99.90
2018-12-03T18:30:58.030Z,99.90
2018-12-03T18:33:27.477Z,99.90
2018-12-03T18:35:56.871Z,99.90
2018-12-03T18:38:26.388Z,99.90
2018-12-03T18:40:55.873Z,99.90
2018-12-03T18:43:25.362Z,99.90
2018-12-03T18:45:54.980Z,99.90
2018-12-03T18:48:24.448Z,99.90
2018-12-03T18:50:56.255Z,99.90
2018-12-03T18:53:27.599Z,99.90
2018-12-03T18:55:57.149Z,99.90
2018-12-03T18:58:33.562Z,99.90
2018-12-03T19:01:03.023Z,99.90
2018-12-03T19:03:32.537Z,99.90
2018-12-03T19:06:03.101Z,99.90
2018-12-03T19:08:32.554Z,99.90
2018-12-03T19:11:02.040Z,99.90
2018-12-03T19:13:31.519Z,99.90
2018-12-03T19:16:00.929Z,99.90
2018-12-03T19:18:30.354Z,99.90
2018-12-03T19:20:59.783Z,99.90
2018-12-03T19:23:29.319Z,99.90
2018-12-03T19:25:58.784Z,99.90
2018-12-03T19:28:29.409Z,99.90
2018-12-03T19:30:59.074Z,99.90
2018-12-03T19:33:30.651Z,99.90
2018-12-03T19:36:22.025Z,99.90
2018-12-03T19:38:51.549Z,99.90
2018-12-03T19:41:21.145Z,99.90
2018-12-03T19:43:50.669Z,99.90
2018-12-03T19:46:20.182Z,99.90
2018-12-03T19:48:49.773Z,99.90
2018-12-03T19:51:19.321Z,99.90
2018-12-03T19:53:48.896Z,99.90
2018-12-03T19:56:18.473Z,99.90
2018-12-03T19:58:50.070Z,99.90
2018-12-03T20:01:19.541Z,99.90
2018-12-03T20:03:49.059Z,99.90
2018-12-03T20:06:18.665Z,99.90
2018-12-03T20:08:48.079Z,99.90
2018-12-03T20:11:17.514Z,99.90
2018-12-03T20:13:46.953Z,99.90
2018-12-03T20:16:16.477Z,99.90
2018-12-03T20:18:45.942Z,99.90
2018-12-03T20:21:20.945Z,99.90
2018-12-03T20:23:53.418Z,99.90
2018-12-03T20:26:26.869Z,99.90
2018-12-03T20:29:06.035Z,99.90
2018-12-03T20:33:48.222Z,99.90
2018-12-03T20:38:36.361Z,99.90
2018-12-03T20:41:12.876Z,99.90
2018-12-03T20:43:42.985Z,99.90
2018-12-03T20:46:27.220Z,99.90
2018-12-03T20:49:04.517Z,99.90
2018-12-03T20:51:37.407Z,99.90
2018-12-03T20:54:07.108Z,99.90
2018-12-03T20:56:36.565Z,99.90
2018-12-03T20:59:06.181Z,99.90
2018-12-03T21:01:39.313Z,99.90
2018-12-03T21:04:09.108Z,99.90
2018-12-03T21:06:38.657Z,99.90
2018-12-03T21:09:08.339Z,99.90
2018-12-03T21:11:37.829Z,99.90
2018-12-03T21:14:07.398Z,99.90
2018-12-03T21:16:36.953Z,99.90
2018-12-03T21:19:08.069Z,99.90
2018-12-03T21:21:37.636Z,99.90
2018-12-03T21:24:07.085Z,99.90
2018-12-03T21:26:36.603Z,99.90
2018-12-03T21:29:06.097Z,99.90
2018-12-03T21:31:35.627Z,99.90
2018-12-03T21:34:05.171Z,99.90
2018-12-03T21:36:34.707Z,99.90
2018-12-03T21:39:05.512Z,99.90
2018-12-03T21:41:36.096Z,99.90
2018-12-03T21:44:05.555Z,99.90
2018-12-03T21:46:34.971Z,99.90
2018-12-03T21:49:04.447Z,99.90
2018-12-03T21:51:33.895Z,99.90
2018-12-03T21:54:03.615Z,99.90
2018-12-03T21:56:33.030Z,99.90
2018-12-03T21:59:02.524Z,99.90
2018-12-03T22:01:31.981Z,99.90
2018-12-03T22:04:01.387Z,99.90
2018-12-03T22:06:32.619Z,99.90
2018-12-03T22:09:02.102Z,99.90
2018-12-03T22:15:28.719Z,99.90
2018-12-03T22:17:59.129Z,99.90
2018-12-03T22:20:28.703Z,99.90
2018-12-03T22:22:58.135Z,99.90
2018-12-03T22:25:27.555Z,99.90
2018-12-03T22:27:56.970Z,99.90
2018-12-03T22:30:26.411Z,99.90
2018-12-03T22:32:55.859Z,99.90
2018-12-03T22:35:25.455Z,99.90
2018-12-03T22:37:54.884Z,99.90
2018-12-03T22:40:24.320Z,99.90
2018-12-03T22:42:53.770Z,99.90
2018-12-03T22:45:23.308Z,99.90
2018-12-03T22:47:52.720Z,99.90
2018-12-03T22:50:22.115Z,99.90
2018-12-03T22:52:51.531Z,99.90
2018-12-03T22:55:20.960Z,99.90
2018-12-03T22:57:50.845Z,99.90
2018-12-03T23:00:37.620Z,99.90
2018-12-03T23:03:07.177Z,99.90
2018-12-03T23:05:36.723Z,99.90
2018-12-03T23:08:06.161Z,99.90
2018-12-03T23:10:36.168Z,99.90
2018-12-03T23:13:05.658Z,99.90
2018-12-03T23:15:36.673Z,99.90
2018-12-03T23:18:06.385Z,99.90
2018-12-03T23:20:35.753Z,99.90
2018-12-03T23:23:05.261Z,99.90
2018-12-03T23:25:34.797Z,99.90
2018-12-03T23:28:04.476Z,99.90
2018-12-03T23:30:34.012Z,99.90
2018-12-03T23:33:03.573Z,99.90
2018-12-03T23:35:33.121Z,99.90
2018-12-03T23:38:02.649Z,99.90
2018-12-03T23:40:32.074Z,99.90
2018-12-03T23:43:01.462Z,99.90
2018-12-03T23:45:30.989Z,99.90
2018-12-03T23:48:00.489Z,99.90
2018-12-03T23:50:30.023Z,99.90
2018-12-03T23:52:59.408Z,99.90
2018-12-03T23:55:28.822Z,99.90
2018-12-03T23:57:58.330Z,99.90
